Time;durP1;ratioP1;P1;durP2;ratioP2;P2;SDS_P1;SDS_P2;PMS_P1;PMS_P2;Temp;Humidity;BMP_temperature;BMP_pressure;BME280_temperature;BME280_humidity;BME280_pressure;Samples;Min_cycle;Max_cycle;Signal;HPM_P1;HPM_P2
2022/01/07 00:00:22;;;;;;;0.10;0.10;;;0.60;99.90;;;;;;5028263;28;20040;-72
2022/01/07 00:02:55;;;;;;;0.25;0.25;;;0.60;99.90;;;;;;5012682;28;20037;-72
2022/01/07 00:05:22;;;;;;;0.10;0.10;;;0.60;99.90;;;;;;5011466;28;20046;-72
2022/01/07 00:07:48;;;;;;;0.40;0.40;;;0.60;99.90;;;;;;5011550;28;20041;-73
2022/01/07 00:10:18;;;;;;;2.80;2.10;;;0.60;99.90;;;;;;5012631;28;20037;-72
2022/01/07 00:12:44;;;;;;;0.30;0.30;;;0.70;99.90;;;;;;5012841;28;20084;-72
2022/01/07 00:15:10;;;;;;;1.55;1.20;;;0.70;99.90;;;;;;5012668;28;20063;-72
2022/01/07 00:17:36;;;;;;;0.10;0.10;;;0.70;99.90;;;;;;5011160;28;20064;-72
2022/01/07 00:20:09;;;;;;;0.28;0.28;;;0.60;99.90;;;;;;5012514;28;20069;-72
2022/01/07 00:22:40;;;;;;;0.10;0.10;;;0.60;99.90;;;;;;5011700;28;20468;-71
2022/01/07 00:25:08;;;;;;;3.72;2.88;;;0.60;99.90;;;;;;5011158;28;20026;-72
2022/01/07 00:27:35;;;;;;;0.30;0.30;;;0.60;99.90;;;;;;5012419;28;20483;-72
2022/01/07 00:30:00;;;;;;;0.13;0.13;;;0.60;99.90;;;;;;5010980;28;20410;-72
2022/01/07 00:32:26;;;;;;;0.10;0.10;;;0.50;99.90;;;;;;5010921;28;20029;-72
2022/01/07 00:34:52;;;;;;;0.15;0.15;;;0.50;99.90;;;;;;5012419;28;20474;-72
2022/01/07 00:37:18;;;;;;;0.20;0.20;;;0.60;99.90;;;;;;5011893;28;20073;-72
2022/01/07 00:39:45;;;;;;;0.57;0.57;;;0.60;99.90;;;;;;5012340;28;20040;-72
2022/01/07 00:42:11;;;;;;;0.10;0.10;;;0.60;99.90;;;;;;5012108;28;20033;-73
2022/01/07 00:44:38;;;;;;;0.20;0.20;;;0.50;99.90;;;;;;5010728;28;20033;-72
2022/01/07 00:47:05;;;;;;;1.75;1.65;;;0.50;99.90;;;;;;5011716;28;20057;-72
2022/01/07 00:49:31;;;;;;;0.13;0.13;;;0.40;99.90;;;;;;5012208;28;20030;-72
2022/01/07 00:51:59;;;;;;;0.10;0.10;;;0.40;99.90;;;;;;5011108;28;20104;-72
2022/01/07 00:54:25;;;;;;;0.10;0.10;;;0.30;99.90;;;;;;5012004;28;20034;-71
2022/01/07 00:56:51;;;;;;;0.90;0.85;;;0.30;99.90;;;;;;5010987;28;20022;-72
2022/01/07 00:59:18;;;;;;;0.30;0.30;;;0.20;99.90;;;;;;5010915;28;20061;-72
2022/01/07 01:01:44;;;;;;;0.10;0.10;;;0.10;99.90;;;;;;5011486;28;20496;-72
2022/01/07 01:04:10;;;;;;;0.20;0.20;;;0.20;99.90;;;;;;5012068;28;20124;-72
2022/01/07 01:06:40;;;;;;;0.10;0.10;;;0.30;99.90;;;;;;5010290;28;20038;-72
2022/01/07 01:09:07;;;;;;;0.10;0.10;;;0.40;99.90;;;;;;5010698;28;20034;-72
2022/01/07 01:11:34;;;;;;;0.20;0.20;;;0.40;99.90;;;;;;5010319;28;20486;-72
2022/01/07 01:14:00;;;;;;;0.15;0.15;;;0.30;99.90;;;;;;5010759;28;20437;-72
2022/01/07 01:16:26;;;;;;;0.35;0.35;;;0.30;99.90;;;;;;5011421;28;20030;-72
2022/01/07 01:18:52;;;;;;;1.88;0.60;;;0.50;99.90;;;;;;5011656;28;20487;-72
2022/01/07 01:21:18;;;;;;;0.20;0.20;;;0.40;99.90;;;;;;5010150;28;20200;-72
2022/01/07 01:23:45;;;;;;;0.40;0.40;;;0.50;99.90;;;;;;5010688;28;20036;-71
2022/01/07 01:26:12;;;;;;;0.20;0.20;;;0.50;99.90;;;;;;5011609;28;20395;-71
2022/01/07 01:28:38;;;;;;;1.33;1.23;;;0.50;99.90;;;;;;5010455;28;20044;-71
2022/01/07 01:31:05;;;;;;;2.28;2.10;;;0.40;99.90;;;;;;5010565;28;20438;-72
2022/01/07 01:33:31;;;;;;;0.65;0.65;;;0.50;99.90;;;;;;5011504;28;20029;-71
2022/01/07 01:35:56;;;;;;;1.27;1.17;;;0.50;99.90;;;;;;5010076;28;20080;-72
2022/01/07 01:38:22;;;;;;;0.10;0.10;;;0.50;99.90;;;;;;5011721;28;20025;-72
2022/01/07 01:40:48;;;;;;;0.40;0.40;;;0.60;99.90;;;;;;5011644;28;20041;-71
2022/01/07 01:43:14;;;;;;;0.65;0.65;;;0.60;99.90;;;;;;5011506;28;20026;-72
2022/01/07 01:45:40;;;;;;;0.75;0.75;;;0.40;99.90;;;;;;5010400;28;20044;-72
2022/01/07 01:48:06;;;;;;;0.43;0.43;;;0.30;99.90;;;;;;5011275;28;20464;-71
2022/01/07 01:50:32;;;;;;;14.77;2.20;;;0.30;99.90;;;;;;5011383;28;20072;-71
2022/01/07 01:52:58;;;;;;;0.60;0.40;;;0.20;99.90;;;;;;5011398;28;20356;-71
2022/01/07 01:55:27;;;;;;;0.10;0.10;;;0.20;99.90;;;;;;5011075;28;20117;-71
2022/01/07 01:57:55;;;;;;;1.23;1.17;;;0.20;99.90;;;;;;5010024;28;20558;-71
2022/01/07 02:00:25;;;;;;;1.55;1.45;;;0.10;99.90;;;;;;5011433;28;20042;-71
2022/01/07 02:02:51;;;;;;;0.25;0.25;;;0.10;99.90;;;;;;5010118;28;20037;-71
2022/01/07 02:05:17;;;;;;;0.10;0.10;;;0.10;99.90;;;;;;5010048;28;20036;-71
2022/01/07 02:07:44;;;;;;;0.13;0.13;;;0.10;99.90;;;;;;5010960;28;20128;-71
2022/01/07 02:10:14;;;;;;;0.10;0.10;;;0.10;99.90;;;;;;5010310;28;20064;-71
2022/01/07 02:12:41;;;;;;;0.10;0.10;;;0.10;99.90;;;;;;5012583;28;20033;-72
2022/01/07 02:15:10;;;;;;;0.10;0.10;;;0.10;99.90;;;;;;5014862;28;20029;-71
2022/01/07 02:17:41;;;;;;;1.17;1.17;;;0.10;99.90;;;;;;5014887;28;20076;-71
2022/01/07 02:20:08;;;;;;;0.10;0.10;;;0.10;99.90;;;;;;5014794;28;20065;-71
2022/01/07 02:22:33;;;;;;;0.20;0.20;;;0.00;99.90;;;;;;5014599;28;20473;-71
2022/01/07 02:24:59;;;;;;;0.10;0.10;;;0.10;99.90;;;;;;5015034;28;20069;-71
2022/01/07 02:27:25;;;;;;;1.45;1.23;;;0.10;99.90;;;;;;5014698;28;20048;-71
2022/01/07 02:29:51;;;;;;;0.10;0.10;;;0.10;99.90;;;;;;5014768;28;20486;-71
2022/01/07 02:32:18;;;;;;;0.28;0.28;;;0.10;99.90;;;;;;5013581;28;20034;-72
2022/01/07 02:34:46;;;;;;;1.75;1.67;;;0.10;99.90;;;;;;5014577;28;20061;-71
2022/01/07 02:37:12;;;;;;;0.93;0.93;;;0.10;99.90;;;;;;5014704;28;20048;-71
2022/01/07 02:39:39;;;;;;;1.17;1.17;;;0.10;99.90;;;;;;5014042;28;20034;-71
2022/01/07 02:42:05;;;;;;;0.47;0.47;;;0.10;99.90;;;;;;5014360;28;20044;-71
2022/01/07 02:44:31;;;;;;;5.45;4.93;;;0.10;99.90;;;;;;5012837;28;20038;-71
2022/01/07 02:46:57;;;;;;;1.23;1.23;;;0.10;99.90;;;;;;5013964;28;20028;-71
2022/01/07 02:49:23;;;;;;;0.13;0.13;;;0.10;99.90;;;;;;5014062;28;20544;-71
2022/01/07 02:51:49;;;;;;;0.17;0.17;;;0.10;99.90;;;;;;5014126;28;20548;-71
2022/01/07 02:54:14;;;;;;;3.63;3.40;;;0.10;99.90;;;;;;5012770;28;20034;-71
2022/01/07 02:56:41;;;;;;;0.17;0.17;;;0.10;99.90;;;;;;5014276;28;20057;-71
2022/01/07 02:59:09;;;;;;;0.10;0.10;;;0.20;99.90;;;;;;5014360;28;20072;-72
2022/01/07 03:01:39;;;;;;;0.28;0.28;;;0.20;99.90;;;;;;5012827;28;20189;-71
2022/01/07 03:04:06;;;;;;;1.03;0.93;;;0.30;99.90;;;;;;5029269;28;20029;-71
2022/01/07 03:06:34;;;;;;;0.10;0.10;;;0.30;99.90;;;;;;5013719;28;20841;-69
2022/01/07 03:08:59;;;;;;;0.10;0.10;;;0.30;99.90;;;;;;5013769;28;20126;-72
2022/01/07 03:11:26;;;;;;;0.90;0.63;;;0.40;99.90;;;;;;5013646;28;20109;-72
2022/01/07 03:13:51;;;;;;;0.10;0.10;;;0.50;99.90;;;;;;5013934;28;20061;-72
2022/01/07 03:16:17;;;;;;;0.32;0.32;;;0.50;99.90;;;;;;5013555;28;20803;-72
2022/01/07 03:18:44;;;;;;;1.30;1.25;;;0.60;99.90;;;;;;5012257;28;20034;-71
2022/01/07 03:21:10;;;;;;;5.47;2.30;;;0.50;99.90;;;;;;5012434;28;20045;-71
2022/01/07 03:23:37;;;;;;;0.30;0.30;;;0.60;99.90;;;;;;5013020;28;20029;-71
2022/01/07 03:26:04;;;;;;;0.10;0.10;;;0.50;99.90;;;;;;5012180;28;20141;-71
2022/01/07 03:28:30;;;;;;;0.15;0.15;;;0.40;99.90;;;;;;5012418;28;20030;-71
2022/01/07 03:30:56;;;;;;;0.20;0.20;;;0.40;99.90;;;;;;5012183;28;20030;-72
2022/01/07 03:33:22;;;;;;;0.77;0.77;;;0.30;99.90;;;;;;5013674;28;20030;-72
2022/01/07 03:35:48;;;;;;;0.10;0.10;;;0.40;99.90;;;;;;5012192;28;20026;-72
2022/01/07 03:38:14;;;;;;;0.47;0.40;;;0.50;99.90;;;;;;5013560;28;20026;-71
2022/01/07 03:40:40;;;;;;;0.20;0.20;;;0.40;99.90;;;;;;5013261;28;20487;-72
2022/01/07 03:43:07;;;;;;;0.90;0.90;;;0.40;99.90;;;;;;5012189;28;20501;-70
2022/01/07 03:45:33;;;;;;;0.10;0.10;;;0.40;99.90;;;;;;5011673;28;20034;-70
2022/01/07 03:47:59;;;;;;;0.15;0.15;;;0.40;99.90;;;;;;5011891;28;20073;-70
2022/01/07 03:50:28;;;;;;;0.75;0.75;;;0.40;99.90;;;;;;5011874;28;20045;-70
2022/01/07 03:52:56;;;;;;;0.47;0.47;;;0.50;99.90;;;;;;5012792;28;20025;-71
2022/01/07 03:55:25;;;;;;;0.20;0.20;;;0.40;99.90;;;;;;5013060;28;20037;-71
2022/01/07 03:57:52;;;;;;;1.60;1.02;;;0.50;99.90;;;;;;5012799;28;20030;-71
2022/01/07 04:00:33;;;;;;;0.10;0.10;;;0.60;99.90;;;;;;5013190;28;20029;-71
2022/01/07 04:03:05;;;;;;;0.65;0.65;;;0.60;99.90;;;;;;5013318;28;20038;-71
2022/01/07 04:05:30;;;;;;;0.52;0.52;;;0.60;99.90;;;;;;5011722;28;20042;-71
2022/01/07 04:07:56;;;;;;;0.22;0.22;;;0.60;99.90;;;;;;5012924;28;20096;-71
2022/01/07 04:10:22;;;;;;;23.90;2.45;;;0.60;99.90;;;;;;5013278;28;20037;-71
2022/01/07 04:12:48;;;;;;;0.43;0.43;;;0.70;99.90;;;;;;5014691;28;20101;-71
2022/01/07 04:15:16;;;;;;;0.25;0.25;;;0.60;99.90;;;;;;5013016;28;20483;-70
2022/01/07 04:17:48;;;;;;;0.88;0.88;;;0.60;99.90;;;;;;5015831;28;20041;-71
2022/01/07 04:20:17;;;;;;;0.65;0.65;;;0.70;99.90;;;;;;5011443;28;20104;-71
2022/01/07 04:22:43;;;;;;;1.38;1.33;;;0.60;99.90;;;;;;5012536;28;20064;-71
2022/01/07 04:25:17;;;;;;;0.22;0.22;;;0.60;99.90;;;;;;5011497;28;20399;-71
2022/01/07 04:27:54;;;;;;;6.00;2.50;;;0.60;99.90;;;;;;5012268;28;20029;-71
2022/01/07 04:30:22;;;;;;;0.30;0.30;;;0.50;99.90;;;;;;5012377;28;20037;-71
2022/01/07 04:32:48;;;;;;;0.10;0.10;;;0.50;99.90;;;;;;5010663;28;20117;-71
2022/01/07 04:35:16;;;;;;;1.85;1.35;;;0.50;99.90;;;;;;5011168;28;20037;-71
2022/01/07 04:37:42;;;;;;;0.52;0.52;;;0.50;99.90;;;;;;5010782;28;20391;-71
2022/01/07 04:40:11;;;;;;;0.10;0.10;;;0.60;99.90;;;;;;5010928;28;20095;-71
2022/01/07 04:42:37;;;;;;;3.30;1.83;;;0.60;99.90;;;;;;5010747;28;20073;-70
2022/01/07 04:45:06;;;;;;;0.10;0.10;;;0.50;99.90;;;;;;5012233;28;20172;-70
2022/01/07 04:47:32;;;;;;;0.50;0.50;;;0.60;99.90;;;;;;5011700;28;20073;-70
2022/01/07 04:49:58;;;;;;;1.85;1.75;;;0.60;99.90;;;;;;5012296;28;20057;-71
2022/01/07 04:52:24;;;;;;;0.13;0.13;;;0.60;99.90;;;;;;5012189;28;20112;-71
2022/01/07 04:54:50;;;;;;;0.47;0.47;;;0.60;99.90;;;;;;5010782;28;20175;-71
2022/01/07 04:57:16;;;;;;;0.20;0.20;;;0.70;99.90;;;;;;5011552;28;20490;-71
2022/01/07 04:59:41;;;;;;;0.43;0.43;;;0.70;99.90;;;;;;5012100;28;20034;-71
2022/01/07 05:02:07;;;;;;;0.20;0.20;;;0.80;99.90;;;;;;5012171;28;20121;-71
2022/01/07 05:04:33;;;;;;;0.98;0.98;;;0.70;99.90;;;;;;5026895;28;20574;-71
2022/01/07 05:06:59;;;;;;;0.10;0.10;;;0.70;99.90;;;;;;5011827;28;20141;-71
2022/01/07 05:09:24;;;;;;;2.63;1.77;;;0.70;99.90;;;;;;5011908;28;20030;-71
2022/01/07 05:11:52;;;;;;;0.20;0.20;;;0.70;99.90;;;;;;5011948;28;20120;-72
2022/01/07 05:14:19;;;;;;;0.17;0.17;;;0.60;99.90;;;;;;5011754;28;20434;-72
2022/01/07 05:16:45;;;;;;;0.10;0.10;;;0.60;99.90;;;;;;5011728;28;20612;-71
2022/01/07 05:19:12;;;;;;;1.20;1.10;;;0.50;99.90;;;;;;5010945;28;20038;-72
2022/01/07 05:21:38;;;;;;;0.25;0.25;;;0.50;99.90;;;;;;5011686;28;20061;-71
2022/01/07 05:24:05;;;;;;;4.63;0.82;;;0.60;99.90;;;;;;5012002;28;20477;-72
2022/01/07 05:26:31;;;;;;;0.45;0.45;;;0.60;99.90;;;;;;5012955;28;20060;-69
2022/01/07 05:28:57;;;;;;;0.50;0.50;;;0.60;99.90;;;;;;5030141;28;20109;-71
2022/01/07 05:31:24;;;;;;;0.20;0.20;;;0.60;99.90;;;;;;5031747;28;20120;-72
2022/01/07 05:33:52;;;;;;;0.68;0.63;;;0.70;99.90;;;;;;5027627;28;20107;-69
2022/01/07 05:36:19;;;;;;;0.10;0.10;;;0.70;99.90;;;;;;5030893;28;20069;-69
2022/01/07 05:38:45;;;;;;;0.65;0.65;;;0.70;99.90;;;;;;5031271;28;20111;-69
2022/01/07 05:41:12;;;;;;;1.23;1.13;;;0.70;99.90;;;;;;5030091;28;20099;-66
2022/01/07 05:43:38;;;;;;;0.10;0.10;;;0.70;99.90;;;;;;5029870;28;20041;-68
2022/01/07 05:46:04;;;;;;;6.65;0.88;;;0.70;99.90;;;;;;5031369;28;20493;-68
2022/01/07 05:48:30;;;;;;;0.88;0.82;;;0.60;99.90;;;;;;5033603;28;20107;-68
2022/01/07 05:50:56;;;;;;;2.20;2.10;;;0.60;99.90;;;;;;5035306;28;20025;-68
2022/01/07 05:53:21;;;;;;;3.35;3.13;;;0.70;99.90;;;;;;5034976;28;20095;-70
2022/01/07 05:55:47;;;;;;;0.20;0.20;;;0.70;99.90;;;;;;5034773;28;20033;-70
2022/01/07 05:58:13;;;;;;;0.88;0.85;;;0.70;99.90;;;;;;5035227;28;20053;-66
2022/01/07 06:00:39;;;;;;;0.15;0.15;;;0.70;99.90;;;;;;5034996;28;20037;-66
2022/01/07 06:03:04;;;;;;;0.20;0.20;;;0.70;99.90;;;;;;5035117;28;20037;-67
2022/01/07 06:05:30;;;;;;;0.25;0.22;;;0.70;99.90;;;;;;5034781;28;20072;-68
2022/01/07 06:07:56;;;;;;;0.75;0.75;;;0.80;99.90;;;;;;5034585;28;20398;-69
2022/01/07 06:10:21;;;;;;;0.43;0.40;;;0.80;99.90;;;;;;5034474;28;20033;-69
2022/01/07 06:12:47;;;;;;;2.50;1.98;;;0.80;99.90;;;;;;5034542;28;20040;-68
2022/01/07 06:15:13;;;;;;;0.28;0.28;;;0.90;99.90;;;;;;5034346;28;20033;-66
2022/01/07 06:17:39;;;;;;;2.05;1.65;;;0.80;99.90;;;;;;5034715;28;20552;-67
2022/01/07 06:20:07;;;;;;;0.80;0.80;;;0.90;99.90;;;;;;5034515;28;20036;-67
2022/01/07 06:22:34;;;;;;;0.10;0.10;;;0.90;99.90;;;;;;5034359;28;20033;-67
2022/01/07 06:25:01;;;;;;;0.20;0.20;;;0.90;99.90;;;;;;5033531;28;20029;-67
2022/01/07 06:27:27;;;;;;;0.10;0.10;;;1.00;99.90;;;;;;5031621;28;20022;-66
2022/01/07 06:29:53;;;;;;;14.90;4.22;;;1.00;99.90;;;;;;5022916;28;20036;-64
2022/01/07 06:32:19;;;;;;;0.10;0.10;;;1.00;99.90;;;;;;5026993;28;20129;-67
2022/01/07 06:34:45;;;;;;;0.28;0.28;;;1.00;99.90;;;;;;5023240;28;20482;-65
2022/01/07 06:37:12;;;;;;;0.45;0.45;;;1.10;99.90;;;;;;5022911;28;20033;-65
2022/01/07 06:39:37;;;;;;;0.40;0.40;;;1.10;99.90;;;;;;5016643;28;20784;-65
2022/01/07 06:42:04;;;;;;;0.73;0.50;;;1.10;99.90;;;;;;5023949;28;20092;-66
2022/01/07 06:44:30;;;;;;;0.20;0.20;;;1.10;99.90;;;;;;5023618;28;20071;-66
2022/01/07 06:46:56;;;;;;;0.63;0.63;;;1.10;99.90;;;;;;5030157;28;20025;-66
2022/01/07 06:49:21;;;;;;;0.10;0.10;;;1.10;99.90;;;;;;5034367;28;20536;-65
2022/01/07 06:51:47;;;;;;;1.27;1.17;;;1.10;99.90;;;;;;5034043;28;20647;-65
2022/01/07 06:54:14;;;;;;;0.10;0.10;;;1.10;99.90;;;;;;5034088;28;20470;-66
2022/01/07 06:56:42;;;;;;;9.65;2.40;;;1.10;99.90;;;;;;5033872;28;20039;-66
2022/01/07 06:59:10;;;;;;;0.20;0.20;;;1.20;99.90;;;;;;5031788;28;20029;-66
2022/01/07 07:01:36;;;;;;;0.10;0.10;;;1.20;99.90;;;;;;5034053;28;20422;-65
2022/01/07 07:04:02;;;;;;;1.17;1.08;;;1.10;99.90;;;;;;5033760;28;20029;-66
2022/01/07 07:06:28;;;;;;;0.17;0.17;;;1.20;99.90;;;;;;5033535;28;20041;-66
2022/01/07 07:08:53;;;;;;;0.10;0.10;;;1.20;99.90;;;;;;5033633;28;20082;-65
2022/01/07 07:11:19;;;;;;;0.10;0.10;;;1.10;99.90;;;;;;5034016;28;20033;-65
2022/01/07 07:13:45;;;;;;;0.10;0.10;;;1.20;99.90;;;;;;5033719;28;20614;-66
2022/01/07 07:16:11;;;;;;;0.35;0.35;;;1.20;99.90;;;;;;5032575;28;20490;-66
2022/01/07 07:18:36;;;;;;;2.28;1.60;;;1.20;99.90;;;;;;5033310;28;20033;-66
2022/01/07 07:21:02;;;;;;;0.10;0.10;;;1.20;99.90;;;;;;5033438;28;20755;-66
2022/01/07 07:23:28;;;;;;;0.20;0.20;;;1.20;99.90;;;;;;5032245;28;20386;-65
2022/01/07 07:25:54;;;;;;;0.10;0.10;;;1.20;99.90;;;;;;5033328;28;20033;-65
2022/01/07 07:28:19;;;;;;;0.40;0.40;;;1.30;99.90;;;;;;5033577;28;20036;-66
2022/01/07 07:30:47;;;;;;;0.10;0.10;;;1.20;99.90;;;;;;5032985;28;20599;-65
2022/01/07 07:38:36;;;;;;;0.20;0.20;;;1.20;99.90;;;;;;5032238;28;20123;-66
2022/01/07 07:41:03;;;;;;;0.52;0.52;;;1.20;99.90;;;;;;5029828;28;20030;-66
2022/01/07 07:43:29;;;;;;;0.10;0.10;;;1.20;99.90;;;;;;5033118;28;20029;-66
2022/01/07 07:45:55;;;;;;;0.10;0.10;;;1.20;99.90;;;;;;5033055;28;20409;-66
2022/01/07 07:48:21;;;;;;;2.40;2.28;;;1.20;99.90;;;;;;5015202;28;20059;-65
2022/01/07 07:50:46;;;;;;;0.22;0.22;;;1.30;99.90;;;;;;5015181;28;20405;-66
2022/01/07 07:53:12;;;;;;;0.47;0.47;;;1.30;99.90;;;;;;5033100;28;20029;-66
2022/01/07 07:55:38;;;;;;;0.20;0.20;;;1.40;99.90;;;;;;5032756;28;20049;-66
2022/01/07 07:58:04;;;;;;;0.45;0.45;;;1.40;99.90;;;;;;5032851;28;20029;-66
2022/01/07 08:00:31;;;;;;;0.43;0.43;;;1.50;99.90;;;;;;5032892;28;20528;-66
2022/01/07 08:02:58;;;;;;;0.10;0.10;;;1.50;99.90;;;;;;5032726;28;20030;-66
2022/01/07 08:05:24;;;;;;;0.50;0.50;;;1.40;99.90;;;;;;5031695;28;20041;-66
2022/01/07 08:07:50;;;;;;;0.47;0.47;;;1.50;99.90;;;;;;5032633;28;20045;-66
2022/01/07 08:10:23;;;;;;;0.10;0.10;;;1.50;99.90;;;;;;5031014;28;20037;-66
2022/01/07 08:13:26;;;;;;;0.10;0.10;;;1.60;99.90;;;;;;5031172;28;20033;-65
2022/01/07 08:16:02;;;;;;;0.10;0.10;;;1.60;99.90;;;;;;5032087;28;20045;-66
2022/01/07 08:18:34;;;;;;;0.52;0.52;;;1.70;99.90;;;;;;5031201;28;20025;-66
2022/01/07 08:21:09;;;;;;;1.20;1.10;;;1.70;99.90;;;;;;5031127;28;20061;-66
2022/01/07 08:23:40;;;;;;;1.23;1.23;;;1.80;99.90;;;;;;5032606;28;20033;-66
2022/01/07 08:26:09;;;;;;;0.28;0.28;;;1.80;99.90;;;;;;5032452;28;20045;-66
2022/01/07 08:28:42;;;;;;;1.42;1.33;;;1.70;99.90;;;;;;5031395;28;20025;-66
2022/01/07 08:36:26;;;;;;;1.05;0.98;;;1.60;99.90;;;;;;5031442;28;20048;-66
2022/01/07 08:38:52;;;;;;;0.10;0.10;;;1.60;99.90;;;;;;5030806;28;20112;-66
2022/01/07 08:41:22;;;;;;;0.10;0.10;;;1.50;99.90;;;;;;5031103;28;20044;-66
2022/01/07 08:43:49;;;;;;;0.10;0.10;;;1.50;99.90;;;;;;5032002;28;20048;-66
2022/01/07 08:46:15;;;;;;;0.10;0.10;;;1.40;99.90;;;;;;5032336;28;20029;-66
2022/01/07 08:48:42;;;;;;;0.40;0.40;;;1.30;99.90;;;;;;5014083;28;20056;-66
2022/01/07 08:51:09;;;;;;;0.10;0.10;;;1.30;99.90;;;;;;5032155;28;20039;-66
2022/01/07 08:53:36;;;;;;;0.22;0.22;;;1.30;99.90;;;;;;5031047;28;20033;-66
2022/01/07 08:56:03;;;;;;;0.47;0.47;;;1.30;99.90;;;;;;5030234;28;20029;-66
2022/01/07 08:58:29;;;;;;;0.30;0.30;;;1.30;99.90;;;;;;5032005;28;20496;-66
2022/01/07 09:00:56;;;;;;;0.10;0.10;;;1.40;99.90;;;;;;5031961;28;20042;-68
2022/01/07 09:03:23;;;;;;;4.35;4.03;;;1.40;99.90;;;;;;5031704;28;20056;-67
2022/01/07 09:05:49;;;;;;;1.63;1.02;;;1.50;99.90;;;;;;5031794;28;20040;-68
2022/01/07 09:08:15;;;;;;;0.38;0.38;;;1.60;99.90;;;;;;5031615;28;20374;-67
2022/01/07 09:10:42;;;;;;;0.60;0.57;;;1.70;99.90;;;;;;5031792;28;20505;-68
2022/01/07 09:13:10;;;;;;;1.65;1.55;;;1.80;99.90;;;;;;5030512;28;20033;-68
2022/01/07 09:15:36;;;;;;;0.40;0.40;;;1.90;99.90;;;;;;5014211;28;20041;-68
2022/01/07 09:18:11;;;;;;;0.10;0.10;;;2.00;99.90;;;;;;5031393;28;20025;-67
2022/01/07 09:20:42;;;;;;;0.25;0.25;;;2.00;99.90;;;;;;5031434;28;20040;-68
2022/01/07 09:23:09;;;;;;;0.65;0.65;;;2.00;99.90;;;;;;5029703;28;20449;-68
2022/01/07 09:25:36;;;;;;;5.50;0.82;;;2.10;99.90;;;;;;5031741;28;20120;-68
2022/01/07 09:28:03;;;;;;;0.10;0.10;;;2.10;99.90;;;;;;5029962;28;20153;-68
2022/01/07 09:30:29;;;;;;;0.10;0.10;;;2.20;99.90;;;;;;5013828;28;20425;-68
2022/01/07 09:32:54;;;;;;;0.10;0.10;;;2.20;99.90;;;;;;5030653;28;20096;-67
2022/01/07 09:35:20;;;;;;;1.00;1.00;;;2.10;99.90;;;;;;5030165;28;20168;-66
2022/01/07 09:37:46;;;;;;;0.68;0.68;;;2.20;99.90;;;;;;5031318;28;20486;-67
2022/01/07 09:40:13;;;;;;;0.22;0.22;;;2.20;99.90;;;;;;5031523;28;20080;-67
2022/01/07 09:42:58;;;;;;;0.35;0.35;;;2.20;99.90;;;;;;5018709;28;20037;-67
2022/01/07 09:45:25;;;;;;;4.18;2.92;;;2.20;99.90;;;;;;5010642;28;20026;-67
2022/01/07 09:47:53;;;;;;;1.20;1.00;;;2.30;99.90;;;;;;5011221;28;20649;-67
2022/01/07 09:50:19;;;;;;;0.10;0.10;;;2.20;99.90;;;;;;5011537;28;20387;-67
2022/01/07 09:52:46;;;;;;;0.10;0.10;;;2.20;99.90;;;;;;5010332;28;20083;-68
2022/01/07 09:55:11;;;;;;;0.03;0.03;;;2.20;99.90;;;;;;5009585;28;20053;-67
2022/01/07 09:57:37;;;;;;;0.43;0.43;;;2.30;99.90;;;;;;5011778;28;20048;-67
2022/01/07 10:00:07;;;;;;;0.13;0.13;;;2.20;99.90;;;;;;4993914;28;20625;-67
2022/01/07 10:02:32;;;;;;;0.90;0.90;;;2.20;99.90;;;;;;5011614;28;20570;-65
2022/01/07 10:05:18;;;;;;;0.55;0.55;;;2.30;99.90;;;;;;5011513;28;20036;-66
2022/01/07 10:07:44;;;;;;;0.70;0.70;;;2.30;99.90;;;;;;5010416;28;20659;-65
2022/01/07 10:10:17;;;;;;;0.10;0.10;;;2.30;99.90;;;;;;5010165;28;20041;-66
2022/01/07 10:13:06;;;;;;;0.77;0.77;;;2.30;99.90;;;;;;5011551;28;20034;-66
2022/01/07 10:15:40;;;;;;;0.10;0.10;;;2.30;99.90;;;;;;5011166;28;20156;-66
2022/01/07 10:18:12;;;;;;;0.47;0.47;;;2.40;99.90;;;;;;5011161;28;20030;-66
2022/01/07 10:20:44;;;;;;;0.10;0.10;;;2.40;99.90;;;;;;5009943;28;20038;-66
2022/01/07 10:23:24;;;;;;;0.10;0.10;;;2.40;99.90;;;;;;5010085;28;20072;-66
2022/01/07 10:25:57;;;;;;;0.10;0.10;;;2.50;99.90;;;;;;5011255;28;20025;-66
2022/01/07 10:28:32;;;;;;;0.40;0.40;;;2.40;99.90;;;;;;5010305;28;20037;-67
2022/01/07 10:31:02;;;;;;;0.98;0.98;;;2.40;99.90;;;;;;5010073;28;20509;-66
2022/01/07 10:33:39;;;;;;;1.00;1.00;;;2.40;99.90;;;;;;5010979;28;20403;-66
2022/01/07 10:36:07;;;;;;;0.10;0.10;;;2.50;99.90;;;;;;5013484;28;20510;-66
2022/01/07 10:39:06;;;;;;;0.10;0.10;;;2.50;99.90;;;;;;5014728;28;20041;-65
2022/01/07 10:41:32;;;;;;;0.88;0.88;;;2.50;99.90;;;;;;5013339;28;20041;-66
2022/01/07 10:44:04;;;;;;;1.20;1.13;;;2.60;99.90;;;;;;5013225;28;20034;-67
2022/01/07 10:46:31;;;;;;;1.10;1.00;;;2.60;99.90;;;;;;5013288;28;20034;-66
2022/01/07 10:49:04;;;;;;;0.10;0.10;;;2.60;99.90;;;;;;5014310;28;20058;-67
2022/01/07 10:51:36;;;;;;;0.10;0.10;;;2.60;99.90;;;;;;5013893;28;20033;-66
2022/01/07 10:54:10;;;;;;;0.10;0.10;;;2.60;99.90;;;;;;5014367;28;20026;-66
2022/01/07 10:56:47;;;;;;;0.35;0.35;;;2.60;99.90;;;;;;4997243;28;20030;-66
2022/01/07 10:59:19;;;;;;;0.10;0.10;;;2.60;99.90;;;;;;5014661;28;20045;-66
2022/01/07 11:01:57;;;;;;;0.17;0.17;;;2.60;99.90;;;;;;5012865;28;20076;-65
2022/01/07 11:04:27;;;;;;;0.55;0.55;;;2.60;99.90;;;;;;5013144;28;20073;-67
2022/01/07 11:06:57;;;;;;;0.90;0.90;;;2.60;99.90;;;;;;5012673;28;20120;-67
2022/01/07 11:09:24;;;;;;;0.40;0.40;;;2.60;99.90;;;;;;5012899;28;20590;-66
2022/01/07 11:11:54;;;;;;;0.10;0.10;;;2.50;99.90;;;;;;5014010;28;20030;-67
2022/01/07 11:14:24;;;;;;;0.10;0.10;;;2.60;99.90;;;;;;4996590;28;20034;-67
2022/01/07 11:16:50;;;;;;;1.77;1.48;;;2.60;99.90;;;;;;5013942;28;20065;-66
2022/01/07 11:19:24;;;;;;;0.10;0.10;;;2.60;99.90;;;;;;5020814;28;20061;-65
2022/01/07 11:21:53;;;;;;;0.10;0.10;;;2.60;99.90;;;;;;5012584;28;20042;-66
2022/01/07 11:24:37;;;;;;;0.13;0.13;;;2.60;99.90;;;;;;5013904;28;20033;-64
2022/01/07 11:27:10;;;;;;;0.00;0.00;;;2.60;99.90;;;;;;5033525;28;20033;-66
2022/01/07 11:29:51;;;;;;;0.10;0.10;;;2.60;99.90;;;;;;5027739;28;20037;-65
2022/01/07 11:32:25;;;;;;;0.10;0.10;;;2.60;99.90;;;;;;5021157;28;20034;-65
2022/01/07 11:34:53;;;;;;;0.43;0.43;;;2.60;99.90;;;;;;5012997;28;20038;-66
2022/01/07 11:37:39;;;;;;;0.40;0.40;;;2.60;99.90;;;;;;5012719;28;20034;-64
2022/01/07 11:40:07;;;;;;;0.75;0.75;;;2.60;99.90;;;;;;5012278;28;20533;-67
2022/01/07 11:42:47;;;;;;;0.20;0.20;;;2.60;99.90;;;;;;5012657;28;20060;-65
2022/01/07 11:45:37;;;;;;;0.50;0.50;;;2.60;99.90;;;;;;5016285;28;20044;-67
2022/01/07 11:48:17;;;;;;;3.95;3.70;;;2.60;99.90;;;;;;5015376;28;20081;-75
2022/01/07 11:51:10;;;;;;;0.30;0.30;;;2.70;99.90;;;;;;5013220;28;20040;-77
2022/01/07 11:53:35;;;;;;;0.00;0.00;;;2.70;99.90;;;;;;5013389;28;20511;-76
2022/01/07 11:56:04;;;;;;;0.10;0.10;;;2.60;99.90;;;;;;5011954;28;20038;-75
2022/01/07 11:58:55;;;;;;;0.10;0.10;;;2.70;99.90;;;;;;5013589;28;20030;-71
2022/01/07 12:01:31;;;;;;;0.13;0.13;;;2.70;99.90;;;;;;5012060;28;20038;-69
2022/01/07 12:04:00;;;;;;;3.33;2.60;;;2.70;99.90;;;;;;5013182;28;20124;-69
2022/01/07 12:06:26;;;;;;;1.33;1.23;;;2.70;99.90;;;;;;5013314;28;20034;-69
2022/01/07 12:09:05;;;;;;;0.10;0.10;;;2.70;99.90;;;;;;5013177;28;20029;-69
2022/01/07 12:11:36;;;;;;;0.10;0.10;;;2.60;99.90;;;;;;5013442;28;20452;-69
2022/01/07 12:14:25;;;;;;;0.55;0.55;;;2.60;99.90;;;;;;5028059;28;20030;-69
2022/01/07 12:17:00;;;;;;;0.25;0.25;;;2.70;99.90;;;;;;5013344;28;20120;-69
2022/01/07 12:19:26;;;;;;;0.30;0.30;;;2.60;99.90;;;;;;5013038;28;20037;-69
2022/01/07 12:21:58;;;;;;;0.30;0.30;;;2.70;99.90;;;;;;5012861;28;20033;-69
2022/01/07 12:24:28;;;;;;;0.20;0.20;;;2.70;99.90;;;;;;5013089;28;20662;-69
2022/01/07 12:27:18;;;;;;;0.20;0.20;;;2.70;99.90;;;;;;5011411;28;20033;-69
2022/01/07 12:29:50;;;;;;;0.13;0.13;;;2.80;99.90;;;;;;5012711;28;20557;-69
2022/01/07 12:32:18;;;;;;;0.10;0.10;;;2.70;99.90;;;;;;5012762;28;20529;-69
2022/01/07 12:34:47;;;;;;;0.10;0.10;;;2.80;99.90;;;;;;5012503;28;20124;-68
2022/01/07 12:37:20;;;;;;;0.10;0.10;;;2.80;99.90;;;;;;5012656;28;20026;-68
2022/01/07 12:39:56;;;;;;;0.10;0.10;;;2.80;99.90;;;;;;5012907;28;20025;-68
2022/01/07 12:42:23;;;;;;;1.83;1.73;;;2.80;99.90;;;;;;5027693;28;20026;-68
2022/01/07 12:44:57;;;;;;;0.57;0.57;;;2.80;99.90;;;;;;5027510;28;20057;-69
2022/01/07 12:47:26;;;;;;;0.28;0.28;;;2.80;99.90;;;;;;5011035;28;20053;-68
2022/01/07 12:49:58;;;;;;;0.30;0.30;;;2.90;99.90;;;;;;5012604;28;20100;-67
2022/01/07 12:52:33;;;;;;;0.15;0.15;;;2.80;99.90;;;;;;5027526;28;20038;-68
2022/01/07 12:55:19;;;;;;;0.60;0.60;;;2.80;99.90;;;;;;5012173;28;20072;-68
2022/01/07 12:57:50;;;;;;;0.00;0.00;;;2.90;99.90;;;;;;5011442;28;20041;-68
2022/01/07 13:00:26;;;;;;;0.10;0.10;;;2.90;99.90;;;;;;5012425;28;20065;-68
2022/01/07 13:03:02;;;;;;;0.13;0.13;;;2.90;99.90;;;;;;5027435;28;20046;-69
2022/01/07 13:05:37;;;;;;;0.68;0.68;;;2.90;99.90;;;;;;5026934;28;20033;-69
2022/01/07 13:08:11;;;;;;;0.63;0.63;;;2.90;99.90;;;;;;5010749;28;20041;-68
2022/01/07 13:10:40;;;;;;;0.10;0.10;;;3.00;99.90;;;;;;5027465;28;20030;-68
2022/01/07 13:13:13;;;;;;;0.10;0.10;;;3.00;99.90;;;;;;5011972;28;20398;-68
2022/01/07 13:15:53;;;;;;;0.50;0.50;;;2.90;99.90;;;;;;5011832;28;20168;-68